Time;durP1;ratioP1;P1;durP2;ratioP2;P2;SDS_P1;SDS_P2;PMS_P1;PMS_P2;Temp;Humidity;BMP_temperature;BMP_pressure;BME280_temperature;BME280_humidity;BME280_pressure;Samples;Min_cycle;Max_cycle;Signal;HPM_P1;HPM_P2
2022/03/01 00:00:47;;;;;;;15.20;9.13;;;0.50;94.10;;;;;;4979832;28;20900;-76
2022/03/01 00:03:13;;;;;;;13.70;8.07;;;0.50;94.10;;;;;;4981367;28;20223;-76
2022/03/01 00:05:40;;;;;;;16.50;8.97;;;0.50;94.10;;;;;;4982604;28;20232;-76
2022/03/01 00:08:07;;;;;;;18.23;9.03;;;0.50;94.00;;;;;;4979242;28;20249;-76
2022/03/01 00:10:34;;;;;;;16.23;8.53;;;0.50;94.10;;;;;;4987781;28;20235;-76
2022/03/01 00:13:00;;;;;;;15.47;8.53;;;0.40;93.80;;;;;;4982761;28;20617;-76
2022/03/01 00:15:27;;;;;;;15.57;9.13;;;0.40;94.00;;;;;;4978991;28;20222;-76
2022/03/01 00:17:55;;;;;;;17.10;9.80;;;0.40;93.90;;;;;;4987407;28;20222;-78
2022/03/01 00:20:22;;;;;;;17.03;9.30;;;0.40;93.80;;;;;;4986444;28;20243;-76
2022/03/01 00:22:48;;;;;;;16.33;9.67;;;0.40;93.80;;;;;;4981303;28;20257;-77
2022/03/01 00:25:15;;;;;;;19.87;10.03;;;0.40;93.90;;;;;;4984668;28;20841;-76
2022/03/01 00:27:42;;;;;;;18.90;9.77;;;0.40;93.90;;;;;;4978929;28;20241;-76
2022/03/01 00:30:10;;;;;;;16.07;9.20;;;0.40;93.80;;;;;;4979322;28;20261;-76
2022/03/01 00:32:36;;;;;;;14.47;9.33;;;0.30;93.80;;;;;;4986285;28;20227;-76
2022/03/01 00:35:05;;;;;;;15.83;9.50;;;0.30;93.70;;;;;;4977052;28;20226;-76
2022/03/01 00:37:32;;;;;;;16.23;8.63;;;0.30;93.70;;;;;;4984931;28;20253;-77
2022/03/01 00:39:58;;;;;;;17.17;9.33;;;0.30;93.80;;;;;;4998445;28;20234;-76
2022/03/01 00:42:25;;;;;;;15.67;9.57;;;0.30;93.80;;;;;;4980493;28;20234;-76
2022/03/01 00:44:52;;;;;;;15.47;9.63;;;0.30;93.70;;;;;;4983290;28;20248;-76
2022/03/01 00:47:18;;;;;;;19.30;9.63;;;0.30;93.90;;;;;;4982350;28;20239;-76
2022/03/01 00:49:45;;;;;;;18.60;9.43;;;0.30;93.70;;;;;;4982413;28;20226;-76
2022/03/01 00:52:13;;;;;;;18.03;9.27;;;0.20;93.70;;;;;;4974809;28;20257;-76
2022/03/01 00:54:40;;;;;;;16.37;9.03;;;0.20;93.70;;;;;;4977859;28;20219;-76
2022/03/01 00:57:09;;;;;;;15.47;9.23;;;0.20;93.80;;;;;;4983695;28;20268;-77
2022/03/01 00:59:35;;;;;;;19.20;9.53;;;0.20;93.80;;;;;;4975913;28;20238;-76
2022/03/01 01:02:02;;;;;;;17.47;8.97;;;0.20;93.90;;;;;;4981364;28;20238;-77
2022/03/01 01:04:29;;;;;;;15.97;9.93;;;0.20;93.80;;;;;;4976437;28;20314;-77
2022/03/01 01:06:56;;;;;;;16.23;8.77;;;0.10;93.90;;;;;;4984736;28;20233;-78
2022/03/01 01:09:24;;;;;;;17.10;9.73;;;0.10;93.80;;;;;;4980824;28;20688;-78
2022/03/01 01:11:50;;;;;;;16.53;8.57;;;0.10;93.80;;;;;;4986988;28;20303;-77
2022/03/01 01:14:17;;;;;;;16.00;8.53;;;0.10;93.80;;;;;;4976932;28;20231;-77
2022/03/01 01:16:44;;;;;;;16.83;9.03;;;0.10;93.90;;;;;;4989573;28;20584;-76
2022/03/01 01:19:10;;;;;;;14.97;8.63;;;0.00;93.90;;;;;;4988034;28;20229;-76
2022/03/01 01:24:21;;;;;;;16.37;8.73;;;0.00;93.90;;;;;;4978062;28;21125;-76
2022/03/01 01:26:49;;;;;;;16.57;8.73;;;0.00;93.90;;;;;;4981160;28;20223;-76
2022/03/01 01:29:16;;;;;;;17.80;9.10;;;0.00;93.80;;;;;;4980218;28;20227;-76
2022/03/01 01:31:43;;;;;;;16.33;8.73;;;0.00;93.90;;;;;;4987823;28;20235;-76
2022/03/01 01:34:10;;;;;;;16.10;8.20;;;-0.10;93.90;;;;;;4988076;28;20229;-76
2022/03/01 01:36:36;;;;;;;17.60;8.87;;;0.00;93.80;;;;;;4975010;28;20227;-76
2022/03/01 01:39:04;;;;;;;17.63;9.47;;;-0.10;93.90;;;;;;4987514;28;20243;-76
2022/03/01 01:41:31;;;;;;;13.70;8.43;;;-0.10;93.90;;;;;;4979033;28;20318;-76
2022/03/01 01:44:01;;;;;;;14.77;7.93;;;-0.10;93.90;;;;;;4978978;28;20251;-76
2022/03/01 01:46:27;;;;;;;16.40;8.80;;;-0.20;93.80;;;;;;4988348;28;20237;-77
2022/03/01 01:48:54;;;;;;;17.47;9.77;;;-0.20;93.80;;;;;;4982438;28;20545;-77
2022/03/01 01:51:21;;;;;;;19.67;9.57;;;-0.20;93.90;;;;;;4987724;28;20230;-77
2022/03/01 01:53:47;;;;;;;16.33;8.73;;;-0.20;93.80;;;;;;4987582;28;20222;-77
2022/03/01 01:56:14;;;;;;;15.37;8.87;;;-0.30;93.80;;;;;;4977910;28;20238;-76
2022/03/01 01:58:41;;;;;;;16.13;8.50;;;-0.30;93.80;;;;;;4977440;28;20682;-76
2022/03/01 02:01:09;;;;;;;17.20;9.10;;;-0.30;93.80;;;;;;4983557;28;20317;-76
2022/03/01 02:03:36;;;;;;;15.93;8.57;;;-0.30;93.80;;;;;;4981453;28;20330;-76
2022/03/01 02:06:03;;;;;;;17.17;9.40;;;-0.30;93.80;;;;;;4984349;28;20325;-76
2022/03/01 02:08:30;;;;;;;16.57;9.03;;;-0.30;93.80;;;;;;4970530;28;20236;-76
2022/03/01 02:10:57;;;;;;;15.60;8.80;;;-0.40;93.80;;;;;;4964465;28;20227;-76
2022/03/01 02:13:23;;;;;;;15.53;9.10;;;-0.40;93.80;;;;;;4952750;28;20227;-76
2022/03/01 02:15:51;;;;;;;15.73;8.77;;;-0.40;93.90;;;;;;4962025;28;20319;-76
2022/03/01 02:18:19;;;;;;;14.60;8.87;;;-0.40;93.90;;;;;;4959910;28;20242;-76
2022/03/01 02:20:47;;;;;;;16.47;9.07;;;-0.50;93.90;;;;;;4967967;28;20215;-77
2022/03/01 02:23:14;;;;;;;18.67;9.97;;;-0.50;93.90;;;;;;4960462;28;20281;-77
2022/03/01 02:25:40;;;;;;;16.57;9.07;;;-0.50;93.90;;;;;;4955324;28;20247;-77
2022/03/01 02:28:07;;;;;;;16.13;9.47;;;-0.50;93.90;;;;;;4959518;28;20227;-77
2022/03/01 02:30:34;;;;;;;15.43;8.43;;;-0.50;94.00;;;;;;4960973;28;20235;-76
2022/03/01 02:33:01;;;;;;;17.13;9.73;;;-0.60;94.00;;;;;;4948374;28;20249;-77
2022/03/01 02:35:28;;;;;;;16.37;9.23;;;-0.60;94.00;;;;;;4960635;28;20341;-77
2022/03/01 02:37:56;;;;;;;16.40;10.07;;;-0.70;93.90;;;;;;4943717;28;20223;-77
2022/03/01 02:40:23;;;;;;;15.73;9.00;;;-0.70;94.00;;;;;;4970708;28;20704;-76
2022/03/01 02:42:50;;;;;;;17.53;9.17;;;-0.70;94.00;;;;;;4965654;28;20215;-77
2022/03/01 02:45:19;;;;;;;16.33;9.53;;;-0.70;94.00;;;;;;4967556;28;21087;-76
2022/03/01 02:47:46;;;;;;;18.63;8.87;;;-0.80;94.10;;;;;;4960519;28;20866;-76
2022/03/01 02:50:13;;;;;;;15.47;9.57;;;-0.80;94.20;;;;;;4961835;28;20239;-76
2022/03/01 02:52:40;;;;;;;18.43;8.63;;;-0.90;94.20;;;;;;4960187;28;20235;-76
2022/03/01 02:55:10;;;;;;;15.50;8.93;;;-0.90;94.30;;;;;;4965205;28;20332;-77
2022/03/01 02:57:36;;;;;;;14.60;8.60;;;-0.90;94.30;;;;;;4960234;28;20233;-77
2022/03/01 03:00:05;;;;;;;15.63;8.80;;;-0.90;94.30;;;;;;4971692;28;20328;-76
2022/03/01 03:02:32;;;;;;;15.07;8.80;;;-0.90;94.40;;;;;;4974642;28;20790;-76
2022/03/01 03:04:59;;;;;;;16.67;9.00;;;-1.00;94.30;;;;;;4990617;28;20347;-76
2022/03/01 03:07:26;;;;;;;14.10;8.40;;;-1.00;94.30;;;;;;4988504;28;20230;-76
2022/03/01 03:09:53;;;;;;;14.97;8.50;;;-1.10;94.30;;;;;;4987082;28;20256;-76
2022/03/01 03:12:20;;;;;;;15.20;8.13;;;-1.10;94.30;;;;;;4981124;28;20727;-76
2022/03/01 03:14:47;;;;;;;16.60;8.57;;;-1.10;94.40;;;;;;4992024;28;20222;-78
2022/03/01 03:17:14;;;;;;;14.80;9.07;;;-1.10;94.70;;;;;;4982706;28;20226;-77
2022/03/01 03:19:40;;;;;;;15.80;8.87;;;-1.10;94.40;;;;;;4987762;28;21000;-76
2022/03/01 03:22:07;;;;;;;14.80;7.93;;;-1.10;94.30;;;;;;4978654;28;20722;-76
2022/03/01 03:24:34;;;;;;;14.90;7.90;;;-1.20;94.40;;;;;;4987945;28;20897;-76
2022/03/01 03:27:00;;;;;;;13.10;8.47;;;-1.20;94.40;;;;;;4990735;28;20236;-76
2022/03/01 03:29:29;;;;;;;15.20;8.50;;;-1.20;94.40;;;;;;4980718;28;20599;-77
2022/03/01 03:31:57;;;;;;;15.53;9.00;;;-1.20;94.50;;;;;;4989865;28;20702;-77
2022/03/01 03:34:24;;;;;;;14.43;8.50;;;-1.20;94.50;;;;;;4979230;28;20332;-76
2022/03/01 03:36:52;;;;;;;14.83;8.47;;;-1.30;94.50;;;;;;4989961;28;20254;-76
2022/03/01 03:39:19;;;;;;;14.23;8.00;;;-1.30;94.50;;;;;;4979500;28;20239;-76
2022/03/01 03:41:46;;;;;;;13.30;7.97;;;-1.40;94.50;;;;;;4986559;28;20252;-76
2022/03/01 03:44:13;;;;;;;15.50;8.60;;;-1.40;94.50;;;;;;4982274;28;20240;-76
2022/03/01 03:46:41;;;;;;;15.87;8.50;;;-1.40;94.50;;;;;;4983620;28;20563;-76
2022/03/01 03:49:08;;;;;;;16.77;8.53;;;-1.50;94.60;;;;;;4987978;28;20585;-76
2022/03/01 03:51:34;;;;;;;14.03;7.77;;;-1.50;94.60;;;;;;4982620;28;20226;-76
2022/03/01 03:54:01;;;;;;;16.83;8.43;;;-1.50;94.50;;;;;;4975387;28;20371;-76
2022/03/01 03:56:28;;;;;;;13.50;7.70;;;-1.60;94.60;;;;;;4982769;28;20228;-76
2022/03/01 03:58:55;;;;;;;15.80;8.13;;;-1.60;94.60;;;;;;4981967;28;20228;-76
2022/03/01 04:01:22;;;;;;;16.17;8.40;;;-1.60;94.60;;;;;;4985104;28;20225;-76
2022/03/01 04:03:50;;;;;;;15.10;8.20;;;-1.60;94.60;;;;;;4984898;28;20224;-76
2022/03/01 04:06:17;;;;;;;14.53;8.73;;;-1.60;94.60;;;;;;4987781;28;20721;-77
2022/03/01 04:08:44;;;;;;;13.37;7.57;;;-1.60;94.70;;;;;;4989368;28;20945;-78
2022/03/01 04:11:10;;;;;;;14.93;8.40;;;-1.70;94.70;;;;;;4985896;28;20239;-76
2022/03/01 04:13:37;;;;;;;14.50;8.80;;;-1.70;94.80;;;;;;4974779;28;20361;-76
2022/03/01 04:16:04;;;;;;;15.23;8.43;;;-1.70;94.70;;;;;;4984193;28;20239;-76
2022/03/01 04:18:31;;;;;;;14.33;8.60;;;-1.70;94.80;;;;;;4959407;28;20232;-76
2022/03/01 04:20:59;;;;;;;17.00;8.63;;;-1.70;94.80;;;;;;4965794;28;20594;-76
2022/03/01 04:23:25;;;;;;;14.53;8.97;;;-1.80;94.80;;;;;;4963653;28;20242;-76
2022/03/01 04:25:52;;;;;;;14.83;8.43;;;-1.80;94.90;;;;;;4971031;28;20719;-77
2022/03/01 04:28:19;;;;;;;14.80;8.27;;;-1.80;95.30;;;;;;4958416;28;20223;-76
2022/03/01 04:30:46;;;;;;;14.20;7.67;;;-1.90;95.10;;;;;;4946536;28;20232;-76
2022/03/01 04:33:12;;;;;;;17.30;9.03;;;-1.90;95.10;;;;;;4965469;28;20254;-76
2022/03/01 04:35:39;;;;;;;17.03;9.13;;;-1.90;95.00;;;;;;4951149;28;20239;-76
2022/03/01 04:38:07;;;;;;;15.60;8.63;;;-1.90;95.00;;;;;;4951346;28;20638;-76
2022/03/01 04:40:34;;;;;;;17.37;9.20;;;-2.00;94.90;;;;;;4959255;28;20780;-76
2022/03/01 04:43:01;;;;;;;16.50;8.93;;;-2.00;94.90;;;;;;4957691;28;20243;-77
2022/03/01 04:45:27;;;;;;;14.83;8.30;;;-2.00;95.00;;;;;;4961352;28;20234;-78
2022/03/01 04:47:54;;;;;;;16.20;8.67;;;-2.00;95.10;;;;;;4959871;28;20253;-77
2022/03/01 04:50:21;;;;;;;14.73;8.67;;;-2.00;95.20;;;;;;4972669;28;20227;-77
2022/03/01 04:52:47;;;;;;;17.70;9.57;;;-2.00;95.20;;;;;;4980083;28;20234;-77
2022/03/01 04:55:16;;;;;;;15.63;9.00;;;-2.00;95.20;;;;;;4947064;28;20238;-76
2022/03/01 04:57:43;;;;;;;16.57;9.30;;;-2.00;95.30;;;;;;4957563;28;20255;-76
2022/03/01 05:00:11;;;;;;;15.87;8.57;;;-2.10;95.30;;;;;;4962415;28;20601;-77
2022/03/01 05:02:39;;;;;;;15.93;8.53;;;-2.10;95.30;;;;;;4965731;28;20231;-76
2022/03/01 05:05:10;;;;;;;16.07;9.17;;;-2.10;95.20;;;;;;4979717;28;20743;-76
2022/03/01 05:07:38;;;;;;;19.10;9.67;;;-2.10;95.20;;;;;;4980763;28;20278;-77
2022/03/01 05:10:06;;;;;;;17.60;9.63;;;-2.10;95.30;;;;;;4989855;28;20231;-76
2022/03/01 05:12:40;;;;;;;17.03;9.33;;;-2.10;95.30;;;;;;4977566;28;20326;-76
2022/03/01 05:15:07;;;;;;;16.00;8.80;;;-2.10;95.30;;;;;;4987050;28;20321;-76
2022/03/01 05:17:35;;;;;;;18.47;10.17;;;-2.10;95.40;;;;;;4992650;28;20677;-76
2022/03/01 05:20:02;;;;;;;14.37;8.93;;;-2.10;95.40;;;;;;4990060;28;20230;-76
2022/03/01 05:22:28;;;;;;;14.40;8.50;;;-2.10;95.40;;;;;;4982072;28;20296;-78
2022/03/01 05:24:55;;;;;;;16.33;9.30;;;-2.10;95.30;;;;;;4984255;28;20242;-80
2022/03/01 05:27:22;;;;;;;16.83;9.10;;;-2.10;95.40;;;;;;4982698;28;20226;-80
2022/03/01 05:29:50;;;;;;;17.73;10.27;;;-2.20;95.30;;;;;;4983089;28;20233;-80
2022/03/01 05:32:17;;;;;;;17.67;9.70;;;-2.20;95.40;;;;;;4987492;28;20761;-79
2022/03/01 05:34:44;;;;;;;20.17;9.77;;;-2.20;95.50;;;;;;4986564;28;20232;-80
2022/03/01 05:37:11;;;;;;;17.03;9.67;;;-2.20;95.40;;;;;;4983597;28;20231;-79
2022/03/01 05:39:37;;;;;;;19.83;9.70;;;-2.20;95.50;;;;;;4988764;28;20307;-80
2022/03/01 05:42:04;;;;;;;20.17;9.63;;;-2.20;95.60;;;;;;4981841;28;20282;-79
2022/03/01 05:44:31;;;;;;;16.10;9.07;;;-2.20;95.50;;;;;;4982632;28;20310;-79
2022/03/01 05:47:00;;;;;;;16.27;9.47;;;-2.20;95.60;;;;;;4986938;28;20237;-80
2022/03/01 05:49:26;;;;;;;19.70;9.63;;;-2.20;95.80;;;;;;4994337;28;20545;-80
2022/03/01 05:51:53;;;;;;;17.10;9.10;;;-2.20;95.80;;;;;;5001719;28;20405;-80
2022/03/01 05:54:20;;;;;;;16.60;9.97;;;-2.20;95.80;;;;;;4989789;28;20233;-80
2022/03/01 05:56:46;;;;;;;15.93;9.00;;;-2.20;95.70;;;;;;4986829;28;20324;-79
2022/03/01 05:59:13;;;;;;;19.10;9.80;;;-2.20;95.70;;;;;;4986847;28;20246;-80
2022/03/01 06:01:40;;;;;;;18.50;9.47;;;-2.20;95.80;;;;;;5004604;28;20238;-79
2022/03/01 06:04:08;;;;;;;18.63;9.83;;;-2.20;96.10;;;;;;4979083;28;20236;-81
2022/03/01 06:06:34;;;;;;;17.90;9.30;;;-2.20;95.80;;;;;;4982471;28;20244;-81
2022/03/01 06:09:01;;;;;;;15.03;9.67;;;-2.20;95.80;;;;;;4992539;28;20233;-79
2022/03/01 06:11:28;;;;;;;18.73;9.60;;;-2.20;95.80;;;;;;4985796;28;20827;-80
2022/03/01 06:13:54;;;;;;;20.20;10.37;;;-2.20;95.90;;;;;;4979783;28;20226;-80
2022/03/01 06:16:21;;;;;;;19.07;9.83;;;-2.20;95.70;;;;;;4982241;28;20227;-80
2022/03/01 06:18:48;;;;;;;17.57;9.67;;;-2.20;95.80;;;;;;4988036;28;20262;-80
2022/03/01 06:21:16;;;;;;;19.30;10.37;;;-2.10;95.80;;;;;;4991796;28;20230;-80
2022/03/01 06:23:43;;;;;;;18.73;10.17;;;-2.20;95.80;;;;;;4992743;28;20233;-80
2022/03/01 06:26:09;;;;;;;16.30;9.90;;;-2.20;95.90;;;;;;4987436;28;20803;-80
2022/03/01 06:28:36;;;;;;;19.40;10.70;;;-2.10;96.00;;;;;;4986330;28;20701;-80
2022/03/01 06:31:03;;;;;;;17.63;10.33;;;-2.10;95.90;;;;;;4987269;28;20697;-80
2022/03/01 06:33:29;;;;;;;18.53;9.83;;;-2.10;95.90;;;;;;4992565;28;20272;-80
2022/03/01 06:35:56;;;;;;;18.23;9.87;;;-2.10;96.10;;;;;;4996228;28;20680;-80
2022/03/01 06:38:24;;;;;;;20.93;10.10;;;-2.00;96.20;;;;;;4981434;28;20320;-80
2022/03/01 06:40:55;;;;;;;17.70;9.57;;;-1.90;96.00;;;;;;4987164;28;20840;-79
2022/03/01 06:43:22;;;;;;;16.37;10.30;;;-1.90;96.00;;;;;;4978101;28;20575;-80
2022/03/01 06:45:49;;;;;;;17.17;9.77;;;-1.80;96.00;;;;;;4993135;28;20231;-80
2022/03/01 06:48:15;;;;;;;17.30;10.60;;;-1.80;95.80;;;;;;4982833;28;20775;-80
2022/03/01 06:50:42;;;;;;;18.10;10.03;;;-1.70;95.80;;;;;;4979543;28;20224;-80
2022/03/01 06:53:09;;;;;;;17.00;9.63;;;-1.70;95.80;;;;;;4973893;28;20332;-80
2022/03/01 06:55:37;;;;;;;18.13;10.10;;;-1.70;95.80;;;;;;4990609;28;20614;-80
2022/03/01 06:58:03;;;;;;;20.40;11.30;;;-1.60;95.90;;;;;;4996221;28;20327;-80
2022/03/01 07:00:30;;;;;;;18.23;10.37;;;-1.60;95.90;;;;;;4988045;28;20242;-80
2022/03/01 07:02:57;;;;;;;16.70;10.13;;;-1.50;95.90;;;;;;4989262;28;20225;-80
2022/03/01 07:05:23;;;;;;;18.57;10.17;;;-1.40;95.90;;;;;;4987540;28;20233;-80
2022/03/01 07:07:50;;;;;;;19.97;11.07;;;-1.30;95.80;;;;;;4994401;28;20230;-80
2022/03/01 07:10:17;;;;;;;21.33;11.07;;;-1.10;95.80;;;;;;4994465;28;20234;-80
2022/03/01 07:12:47;;;;;;;22.23;10.70;;;-1.00;95.90;;;;;;4980033;28;20242;-80
2022/03/01 07:15:14;;;;;;;19.30;10.53;;;-0.90;95.50;;;;;;4981520;28;20245;-81
2022/03/01 07:17:41;;;;;;;19.30;10.90;;;-0.80;95.10;;;;;;4988147;28;20586;-80
2022/03/01 07:20:08;;;;;;;18.17;10.67;;;-0.70;95.00;;;;;;4988634;28;20234;-80
2022/03/01 07:22:36;;;;;;;20.33;10.83;;;-0.70;94.80;;;;;;4980990;28;20254;-80
2022/03/01 07:25:03;;;;;;;18.90;10.67;;;-0.60;94.70;;;;;;4985395;28;20232;-80
2022/03/01 07:27:29;;;;;;;20.07;10.90;;;-0.50;94.90;;;;;;4980847;28;20285;-80
2022/03/01 07:29:58;;;;;;;19.73;10.90;;;-0.50;94.80;;;;;;4981456;28;20226;-80
2022/03/01 07:32:25;;;;;;;18.23;10.57;;;-0.40;94.70;;;;;;4981531;28;20230;-80
2022/03/01 07:34:51;;;;;;;16.93;10.07;;;-0.30;94.80;;;;;;4985392;28;20233;-80
2022/03/01 07:37:18;;;;;;;19.20;11.10;;;-0.20;94.90;;;;;;4992595;28;20226;-80
2022/03/01 07:39:45;;;;;;;20.33;11.60;;;0.00;95.10;;;;;;4992798;28;20245;-80
2022/03/01 07:42:11;;;;;;;20.13;11.17;;;0.10;94.70;;;;;;4974930;28;20222;-81
2022/03/01 07:44:38;;;;;;;20.23;11.33;;;0.30;94.60;;;;;;4979020;28;20269;-80
2022/03/01 07:47:07;;;;;;;18.17;9.87;;;0.50;93.70;;;;;;4988634;28;20321;-80
2022/03/01 07:49:34;;;;;;;18.30;10.87;;;0.60;93.60;;;;;;4999329;28;20234;-78
2022/03/01 07:52:02;;;;;;;17.13;10.67;;;0.70;93.60;;;;;;4994203;28;20673;-79
2022/03/01 07:54:28;;;;;;;15.83;9.80;;;0.70;93.40;;;;;;4974450;28;20226;-79
2022/03/01 07:56:55;;;;;;;18.43;10.47;;;0.80;93.50;;;;;;4998879;28;20230;-79
2022/03/01 07:59:22;;;;;;;17.67;10.77;;;0.80;93.10;;;;;;4984940;28;20234;-80
2022/03/01 08:01:48;;;;;;;18.20;11.07;;;0.80;93.20;;;;;;4981508;28;20236;-79
2022/03/01 08:04:16;;;;;;;18.83;10.73;;;0.70;92.90;;;;;;4981178;28;20594;-79
2022/03/01 08:06:43;;;;;;;18.33;11.13;;;0.70;92.90;;;;;;4992108;28;20262;-79
2022/03/01 08:09:10;;;;;;;21.13;10.97;;;0.60;93.00;;;;;;4982603;28;20266;-80
2022/03/01 08:11:37;;;;;;;20.27;11.83;;;0.50;92.90;;;;;;4979078;28;20869;-80
2022/03/01 08:14:03;;;;;;;19.17;10.63;;;0.40;93.10;;;;;;4984339;28;20715;-80
2022/03/01 08:16:30;;;;;;;16.03;10.40;;;0.40;93.40;;;;;;4995912;28;20237;-79
2022/03/01 08:18:57;;;;;;;17.70;10.50;;;0.40;93.50;;;;;;5012481;28;20227;-79
2022/03/01 08:21:25;;;;;;;17.23;10.53;;;0.40;93.60;;;;;;4995809;28;20220;-79
2022/03/01 08:23:51;;;;;;;18.83;10.53;;;0.50;93.60;;;;;;4984401;28;20231;-79
2022/03/01 08:26:18;;;;;;;19.93;10.63;;;0.50;93.70;;;;;;4983503;28;20236;-80
2022/03/01 08:28:45;;;;;;;21.83;11.77;;;0.70;93.70;;;;;;4987768;28;20473;-80
2022/03/01 08:31:12;;;;;;;16.57;10.17;;;0.80;93.30;;;;;;4974919;28;20254;-80
2022/03/01 08:33:39;;;;;;;18.83;11.03;;;1.00;93.60;;;;;;4985229;28;20238;-79
2022/03/01 08:36:07;;;;;;;18.13;9.90;;;1.30;93.60;;;;;;4987685;28;20302;-80
2022/03/01 08:38:37;;;;;;;17.97;11.07;;;1.50;93.10;;;;;;4980030;28;20787;-80
2022/03/01 08:41:03;;;;;;;17.30;10.83;;;1.80;93.10;;;;;;4986942;28;20704;-80
2022/03/01 08:43:30;;;;;;;18.03;11.07;;;2.10;92.70;;;;;;4979146;28;20245;-80
2022/03/01 08:45:57;;;;;;;19.57;11.00;;;2.30;92.00;;;;;;4987317;28;20231;-80
2022/03/01 08:48:25;;;;;;;17.30;10.70;;;2.60;91.20;;;;;;4987286;28;21108;-79
2022/03/01 08:50:53;;;;;;;17.80;11.43;;;2.70;91.30;;;;;;4992217;28;20227;-80
2022/03/01 08:53:20;;;;;;;17.07;10.27;;;2.80;91.50;;;;;;4981448;28;20230;-79
2022/03/01 08:55:48;;;;;;;18.47;11.53;;;2.90;90.90;;;;;;4989276;28;20231;-79
2022/03/01 08:58:15;;;;;;;19.77;11.20;;;2.90;91.20;;;;;;4987386;28;20324;-79
2022/03/01 09:00:43;;;;;;;17.87;11.03;;;2.90;90.90;;;;;;4995069;28;20227;-79
2022/03/01 09:03:10;;;;;;;18.87;11.33;;;2.90;90.60;;;;;;4985408;28;20229;-80
2022/03/01 09:05:36;;;;;;;19.53;11.20;;;2.90;91.10;;;;;;4998085;28;20230;-80
2022/03/01 09:08:03;;;;;;;18.73;11.03;;;2.90;90.90;;;;;;4983664;28;20236;-80
2022/03/01 09:10:30;;;;;;;18.73;11.57;;;2.90;90.60;;;;;;4989327;28;21318;-79
2022/03/01 09:12:59;;;;;;;18.50;11.63;;;3.00;90.90;;;;;;4980465;28;20310;-79
2022/03/01 09:15:30;;;;;;;19.13;10.80;;;3.00;90.50;;;;;;4981101;28;20600;-79
2022/03/01 09:17:57;;;;;;;17.87;10.63;;;3.10;91.00;;;;;;4983757;28;20247;-79
2022/03/01 09:20:25;;;;;;;19.67;11.23;;;3.20;91.50;;;;;;4981485;28;20236;-80
2022/03/01 09:22:52;;;;;;;16.63;10.90;;;3.30;91.10;;;;;;4986993;28;20268;-79
2022/03/01 09:25:19;;;;;;;18.37;11.27;;;3.50;91.50;;;;;;4974971;28;20560;-80
2022/03/01 09:27:46;;;;;;;18.20;10.97;;;3.70;90.30;;;;;;4980962;28;20258;-79
2022/03/01 09:30:15;;;;;;;18.90;11.00;;;3.80;90.50;;;;;;4986579;28;20761;-80
2022/03/01 09:32:41;;;;;;;19.27;10.40;;;4.00;89.80;;;;;;4981462;28;20233;-80
2022/03/01 09:35:09;;;;;;;18.57;11.50;;;4.30;90.40;;;;;;4982830;28;20755;-80
2022/03/01 09:37:35;;;;;;;16.30;10.50;;;4.50;89.00;;;;;;4981049;28;20230;-80
2022/03/01 09:40:04;;;;;;;16.43;11.37;;;4.80;89.70;;;;;;4989211;28;20236;-80
2022/03/01 09:42:32;;;;;;;17.73;11.13;;;5.20;88.80;;;;;;4982590;28;20961;-79
2022/03/01 09:45:00;;;;;;;16.07;10.80;;;5.40;87.40;;;;;;4991461;28;20236;-79
2022/03/01 09:47:28;;;;;;;17.53;11.30;;;5.70;88.20;;;;;;4986888;28;20236;-80
2022/03/01 09:49:55;;;;;;;17.33;10.73;;;6.00;88.40;;;;;;4985690;28;20227;-80
2022/03/01 09:52:21;;;;;;;16.03;11.00;;;6.30;87.40;;;;;;4985985;28;20315;-80
2022/03/01 09:54:50;;;;;;;17.27;11.27;;;6.60;85.40;;;;;;4981698;28;20238;-80
2022/03/01 09:57:18;;;;;;;18.43;11.57;;;6.70;85.10;;;;;;4989139;28;20225;-80
2022/03/01 09:59:45;;;;;;;18.30;10.53;;;6.90;86.30;;;;;;4995833;28;20229;-80
2022/03/01 10:02:12;;;;;;;19.17;11.57;;;7.20;86.30;;;;;;4996146;28;20244;-80
2022/03/01 10:04:51;;;;;;;15.93;10.43;;;7.40;84.50;;;;;;4981362;28;20222;-80
2022/03/01 10:07:22;;;;;;;17.00;10.97;;;7.60;82.90;;;;;;4986778;28;20227;-80
2022/03/01 10:09:49;;;;;;;17.27;11.20;;;7.70;82.50;;;;;;4991873;28;20236;-80
2022/03/01 10:12:23;;;;;;;17.90;10.80;;;7.70;80.60;;;;;;4984651;28;20225;-80
2022/03/01 10:14:58;;;;;;;18.13;10.93;;;7.70;79.80;;;;;;4990071;28;20237;-80
2022/03/01 10:17:25;;;;;;;15.50;10.83;;;7.70;81.60;;;;;;4990292;28;20890;-80
2022/03/01 10:20:07;;;;;;;17.10;11.60;;;7.80;81.40;;;;;;4991577;28;20761;-80
2022/03/01 10:22:33;;;;;;;17.90;10.47;;;7.80;78.30;;;;;;4975195;28;20238;-80
2022/03/01 10:25:04;;;;;;;15.43;10.83;;;7.80;80.90;;;;;;4994650;28;20280;-80
2022/03/01 10:27:31;;;;;;;17.57;11.67;;;7.80;80.30;;;;;;4980983;28;20608;-79
2022/03/01 10:29:58;;;;;;;16.60;11.47;;;7.70;80.00;;;;;;4983806;28;20229;-80
2022/03/01 10:32:25;;;;;;;19.70;11.97;;;7.70;79.90;;;;;;4991015;28;20559;-80
2022/03/01 10:35:00;;;;;;;18.13;11.37;;;7.60;78.60;;;;;;4988275;28;20323;-80
2022/03/01 10:37:29;;;;;;;19.57;11.13;;;7.60;78.40;;;;;;4977401;28;20233;-80
2022/03/01 10:40:14;;;;;;;17.33;11.17;;;7.50;78.30;;;;;;4990896;28;20229;-80
2022/03/01 10:42:41;;;;;;;15.83;10.83;;;7.60;79.80;;;;;;4990107;28;20586;-81
2022/03/01 10:45:09;;;;;;;16.43;11.70;;;7.60;80.00;;;;;;4984762;28;20318;-80
2022/03/01 10:47:37;;;;;;;19.07;12.47;;;7.70;79.60;;;;;;4997992;28;20230;-80
2022/03/01 10:50:06;;;;;;;16.60;10.97;;;7.70;79.20;;;;;;5002004;28;20233;-80
2022/03/01 10:52:35;;;;;;;17.03;11.37;;;7.80;79.30;;;;;;4973119;28;20238;-80
2022/03/01 10:55:02;;;;;;;18.50;11.53;;;7.80;77.90;;;;;;4989950;28;20233;-80
2022/03/01 10:57:29;;;;;;;16.23;11.83;;;7.80;78.30;;;;;;4992789;28;20316;-80
2022/03/01 10:59:56;;;;;;;17.03;11.73;;;7.70;77.80;;;;;;4984569;28;20233;-80
2022/03/01 11:02:23;;;;;;;16.53;11.50;;;7.70;78.50;;;;;;4989291;28;20230;-80
2022/03/01 11:04:50;;;;;;;16.57;11.47;;;7.60;77.30;;;;;;4989481;28;20232;-80
2022/03/01 11:07:20;;;;;;;16.50;11.30;;;7.60;78.80;;;;;;4992733;28;20236;-80
2022/03/01 11:09:48;;;;;;;17.60;10.93;;;7.60;79.40;;;;;;4988598;28;20256;-80
2022/03/01 11:12:18;;;;;;;17.27;11.60;;;7.70;79.10;;;;;;4996604;28;20231;-81
2022/03/01 11:14:57;;;;;;;17.47;10.97;;;7.80;80.30;;;;;;4990314;28;20696;-80
2022/03/01 11:17:44;;;;;;;16.07;10.93;;;7.80;78.40;;;;;;4990728;28;20302;-80
2022/03/01 11:20:14;;;;;;;17.33;12.00;;;7.90;77.90;;;;;;4991428;28;20275;-80
2022/03/01 11:22:44;;;;;;;18.03;12.10;;;7.90;79.40;;;;;;4989857;28;20226;-80
2022/03/01 11:25:18;;;;;;;15.53;11.00;;;7.90;80.30;;;;;;4988947;28;20318;-81
2022/03/01 11:27:47;;;;;;;19.30;12.00;;;8.10;79.50;;;;;;4996809;28;20237;-80
2022/03/01 11:30:15;;;;;;;16.60;11.73;;;8.30;78.70;;;;;;4998176;28;20227;-81
2022/03/01 11:32:44;;;;;;;17.70;11.23;;;8.50;78.20;;;;;;4991471;28;20232;-80
2022/03/01 11:35:19;;;;;;;19.10;12.20;;;8.80;79.00;;;;;;4986112;28;20239;-80
2022/03/01 11:37:46;;;;;;;16.97;11.40;;;9.10;78.90;;;;;;4979301;28;20237;-80
2022/03/01 11:40:23;;;;;;;16.43;11.00;;;9.40;78.50;;;;;;4982905;28;20237;-80
2022/03/01 11:42:50;;;;;;;16.07;11.87;;;9.70;76.90;;;;;;4987870;28;20418;-80
2022/03/01 11:45:18;;;;;;;18.80;12.67;;;10.00;76.30;;;;;;4973772;28;20230;-80
2022/03/01 11:47:45;;;;;;;17.60;11.73;;;10.10;75.90;;;;;;4983143;28;20232;-80
2022/03/01 11:50:15;;;;;;;15.80;11.50;;;10.20;76.00;;;;;;4979439;28;20259;-80
2022/03/01 11:52:56;;;;;;;17.17;11.17;;;10.30;76.10;;;;;;4987585;28;20233;-81
2022/03/01 11:55:32;;;;;;;17.17;11.60;;;10.40;72.70;;;;;;4992334;28;20235;-81
2022/03/01 11:57:59;;;;;;;19.17;11.93;;;10.40;75.20;;;;;;4979031;28;20881;-80
2022/03/01 12:00:29;;;;;;;16.73;11.40;;;10.50;74.80;;;;;;4987385;28;20359;-79
2022/03/01 12:02:59;;;;;;;17.17;12.10;;;10.40;73.00;;;;;;4984124;28;20229;-81
2022/03/01 12:05:27;;;;;;;15.20;11.23;;;10.30;72.20;;;;;;4977886;28;20245;-81
2022/03/01 12:07:54;;;;;;;16.13;11.30;;;10.20;71.30;;;;;;4984068;28;20256;-81
2022/03/01 12:10:24;;;;;;;17.37;11.60;;;10.20;73.80;;;;;;4983070;28;20229;-81
2022/03/01 12:12:55;;;;;;;18.47;11.87;;;10.20;75.50;;;;;;4982566;28;20229;-80
2022/03/01 12:15:29;;;;;;;14.47;10.87;;;10.30;74.20;;;;;;4988625;28;20731;-81
2022/03/01 12:17:57;;;;;;;14.80;10.93;;;10.50;73.10;;;;;;4983852;28;20243;-81
2022/03/01 12:20:24;;;;;;;15.90;11.40;;;10.60;74.60;;;;;;4987765;28;20241;-81
2022/03/01 12:23:02;;;;;;;16.30;11.43;;;10.70;74.30;;;;;;4974688;28;20559;-81
2022/03/01 12:25:34;;;;;;;15.87;11.13;;;10.80;73.70;;;;;;4980222;28;20229;-81
2022/03/01 12:28:02;;;;;;;16.67;11.13;;;11.00;73.20;;;;;;4980666;28;20241;-80
2022/03/01 12:30:29;;;;;;;16.80;11.30;;;11.00;71.00;;;;;;4990825;28;20230;-81
2022/03/01 12:32:58;;;;;;;16.00;11.40;;;11.10;72.90;;;;;;4980481;28;20291;-82
2022/03/01 12:35:27;;;;;;;17.90;11.83;;;11.20;70.80;;;;;;4985227;28;20235;-81
2022/03/01 12:37:55;;;;;;;16.23;11.00;;;11.10;69.60;;;;;;4986433;28;20295;-82
2022/03/01 12:40:31;;;;;;;16.40;10.87;;;11.00;71.00;;;;;;4991177;28;20680;-82